createdAt,value
2018-10-01T00:00:16.414Z,99.90
2018-10-01T00:02:44.985Z,99.90
2018-10-01T00:05:13.504Z,99.90
2018-10-01T00:07:42.027Z,99.90
2018-10-01T00:10:10.598Z,99.90
2018-10-01T00:12:39.114Z,99.90
2018-10-01T00:15:07.679Z,99.90
2018-10-01T00:17:36.279Z,99.90
2018-10-01T00:20:10.194Z,99.90
2018-10-01T00:22:43.967Z,99.90
2018-10-01T00:25:12.520Z,99.90
2018-10-01T00:27:41.100Z,99.90
2018-10-01T00:30:09.680Z,99.90
2018-10-01T00:32:38.190Z,99.90
2018-10-01T00:35:06.732Z,99.90
2018-10-01T00:37:35.247Z,99.90
2018-10-01T00:40:03.872Z,99.90
2018-10-01T00:42:32.512Z,99.90
2018-10-01T00:45:01.243Z,99.90
2018-10-01T00:47:29.769Z,99.90
2018-10-01T00:49:58.286Z,99.90
2018-10-01T00:52:26.846Z,99.90
2018-10-01T00:54:55.358Z,99.90
2018-10-01T00:57:23.882Z,99.90
2018-10-01T00:59:52.439Z,99.90
2018-10-01T01:02:20.991Z,99.90
2018-10-01T01:04:49.638Z,99.90
2018-10-01T01:07:18.202Z,99.90
2018-10-01T01:09:46.759Z,99.90
2018-10-01T01:12:15.284Z,99.90
2018-10-01T01:14:43.812Z,99.90
2018-10-01T01:17:12.306Z,99.90
2018-10-01T01:19:40.872Z,99.90
2018-10-01T01:25:00.047Z,99.90
2018-10-01T01:27:28.573Z,99.90
2018-10-01T01:29:57.096Z,99.90
2018-10-01T01:32:25.590Z,99.90
2018-10-01T01:34:54.163Z,99.90
2018-10-01T01:37:22.718Z,99.90
2018-10-01T01:39:51.270Z,99.90
2018-10-01T01:42:19.826Z,99.90
2018-10-01T01:44:48.393Z,99.90
2018-10-01T01:47:16.942Z,99.90
2018-10-01T01:49:45.493Z,99.90
2018-10-01T01:52:14.017Z,99.90
2018-10-01T01:54:42.654Z,99.90
2018-10-01T01:57:11.188Z,99.90
2018-10-01T01:59:39.794Z,99.90
2018-10-01T02:02:08.379Z,99.90
2018-10-01T02:04:36.936Z,99.90
2018-10-01T02:07:05.548Z,99.90
2018-10-01T02:09:34.081Z,99.90
2018-10-01T02:12:02.646Z,99.90
2018-10-01T02:14:31.184Z,99.90
2018-10-01T02:16:59.743Z,99.90
2018-10-01T02:19:28.246Z,99.90
2018-10-01T02:21:56.804Z,99.90
2018-10-01T02:24:25.319Z,99.90
2018-10-01T02:26:53.844Z,99.90
2018-10-01T02:29:22.383Z,99.90
2018-10-01T02:31:50.910Z,99.90
2018-10-01T02:34:19.445Z,99.90
2018-10-01T02:36:47.952Z,99.90
2018-10-01T02:39:16.482Z,99.90
2018-10-01T02:41:45.016Z,99.90
2018-10-01T02:44:13.523Z,99.90
2018-10-01T02:46:42.029Z,99.90
2018-10-01T02:49:10.574Z,99.90
2018-10-01T02:51:44.395Z,99.90
2018-10-01T02:54:18.258Z,99.90
2018-10-01T02:56:46.772Z,99.90
2018-10-01T02:59:15.273Z,99.90
2018-10-01T03:01:43.790Z,99.90
2018-10-01T03:04:12.311Z,99.90
2018-10-01T03:06:40.827Z,99.90
2018-10-01T03:09:12.200Z,99.90
2018-10-01T03:11:40.791Z,99.90
2018-10-01T03:14:10.147Z,99.90
2018-10-01T03:16:38.718Z,99.90
2018-10-01T03:19:07.607Z,99.90
2018-10-01T03:21:37.415Z,99.90
2018-10-01T03:24:05.983Z,99.90
2018-10-01T03:26:34.518Z,99.90
2018-10-01T03:29:03.099Z,99.90
2018-10-01T03:31:31.694Z,99.90
2018-10-01T03:34:00.211Z,99.90
2018-10-01T03:36:28.756Z,99.90
2018-10-01T03:38:57.288Z,99.90
2018-10-01T03:41:25.964Z,99.90
2018-10-01T03:43:54.483Z,99.90
2018-10-01T03:46:23.003Z,99.90
2018-10-01T03:48:51.600Z,99.90
2018-10-01T03:51:20.155Z,99.90
2018-10-01T03:53:48.647Z,99.90
2018-10-01T03:56:17.198Z,99.90
2018-10-01T03:58:45.735Z,99.90
2018-10-01T04:01:14.251Z,99.90
2018-10-01T04:03:42.862Z,99.90
2018-10-01T04:06:11.455Z,99.90
2018-10-01T04:08:40.064Z,99.90
2018-10-01T04:11:08.576Z,99.90
2018-10-01T04:13:37.179Z,99.90
2018-10-01T04:16:05.715Z,99.90
2018-10-01T04:18:34.228Z,99.90
2018-10-01T04:21:02.831Z,99.90
2018-10-01T04:23:31.322Z,99.90
2018-10-01T04:25:59.877Z,99.90
2018-10-01T04:28:28.380Z,99.90
2018-10-01T04:30:56.876Z,99.90
2018-10-01T04:33:41.766Z,99.90
2018-10-01T04:36:10.254Z,99.90
2018-10-01T04:38:38.867Z,99.90
2018-10-01T04:41:07.614Z,99.90
2018-10-01T04:43:36.126Z,99.90
2018-10-01T04:46:04.635Z,99.90
2018-10-01T04:48:33.203Z,99.90
2018-10-01T04:51:01.774Z,99.90
2018-10-01T04:53:30.281Z,99.90
2018-10-01T04:55:58.772Z,99.90
2018-10-01T04:58:27.399Z,99.90
2018-10-01T05:00:55.820Z,99.90
2018-10-01T05:03:25.226Z,99.90
2018-10-01T05:05:53.757Z,99.90
2018-10-01T05:08:22.251Z,99.90
2018-10-01T05:10:50.803Z,99.90
2018-10-01T05:13:19.274Z,99.90
2018-10-01T05:15:47.790Z,99.90
2018-10-01T05:18:16.270Z,99.90
2018-10-01T05:20:44.782Z,99.90
2018-10-01T05:23:13.308Z,99.90
2018-10-01T05:25:41.818Z,99.90
2018-10-01T05:28:10.382Z,99.90
2018-10-01T05:30:38.910Z,99.90
2018-10-01T05:33:07.405Z,99.90
2018-10-01T05:35:35.937Z,99.90
2018-10-01T05:38:04.427Z,99.90
2018-10-01T05:40:33.022Z,99.90
2018-10-01T05:43:01.546Z,99.90
2018-10-01T05:45:30.061Z,99.90
2018-10-01T05:47:58.730Z,99.90
2018-10-01T05:50:27.258Z,99.90
2018-10-01T05:52:55.726Z,99.90
2018-10-01T05:55:24.287Z,99.90
2018-10-01T05:57:52.774Z,99.90
2018-10-01T06:00:21.342Z,99.90
2018-10-01T06:02:49.891Z,99.90
2018-10-01T06:05:18.411Z,99.90
2018-10-01T06:07:46.906Z,99.90
2018-10-01T06:10:15.459Z,99.90
2018-10-01T06:12:44.043Z,99.90
2018-10-01T06:15:12.570Z,99.90
2018-10-01T06:17:41.095Z,99.90
2018-10-01T06:20:09.567Z,99.90
2018-10-01T06:22:38.055Z,99.90
2018-10-01T06:25:06.608Z,99.90
2018-10-01T06:27:35.111Z,99.90
2018-10-01T06:30:03.770Z,99.90
2018-10-01T06:32:32.292Z,99.90
2018-10-01T06:35:00.810Z,99.90
2018-10-01T06:37:29.367Z,99.90
2018-10-01T06:39:57.863Z,99.90
2018-10-01T06:42:26.376Z,99.90
2018-10-01T06:44:54.970Z,99.90
2018-10-01T06:47:23.458Z,99.90
2018-10-01T06:49:51.997Z,99.90
2018-10-01T06:52:20.485Z,99.90
2018-10-01T06:54:48.977Z,99.90
2018-10-01T06:57:17.470Z,99.90
2018-10-01T06:59:46.041Z,99.90
2018-10-01T07:02:14.567Z,99.90
2018-10-01T07:04:43.037Z,99.90
2018-10-01T07:07:11.533Z,99.90
2018-10-01T07:09:40.066Z,99.90
2018-10-01T07:12:08.549Z,99.90
2018-10-01T07:14:37.076Z,99.90
2018-10-01T07:17:06.161Z,99.90
2018-10-01T07:19:34.567Z,99.90
2018-10-01T07:22:03.123Z,99.90
2018-10-01T07:24:31.605Z,99.90
2018-10-01T07:27:00.151Z,99.90
2018-10-01T07:29:28.694Z,99.90
2018-10-01T07:31:57.217Z,99.90
2018-10-01T07:34:26.135Z,99.90
2018-10-01T07:36:54.674Z,99.90
2018-10-01T07:39:23.253Z,99.90
2018-10-01T07:41:51.795Z,99.90
2018-10-01T07:44:20.296Z,99.90
2018-10-01T07:46:48.832Z,99.90
2018-10-01T07:49:17.371Z,99.90
2018-10-01T07:51:45.902Z,99.90
2018-10-01T07:54:14.416Z,99.90
2018-10-01T07:56:42.935Z,99.90
2018-10-01T07:59:11.450Z,99.90
2018-10-01T08:01:40.063Z,99.90
2018-10-01T08:04:08.625Z,99.90
2018-10-01T08:06:37.156Z,99.90
2018-10-01T08:09:08.150Z,99.90
2018-10-01T08:11:36.642Z,99.90
2018-10-01T08:14:05.358Z,95.20
2018-10-01T08:16:33.802Z,94.50
2018-10-01T08:19:02.309Z,92.50
2018-10-01T08:21:30.818Z,89.10
2018-10-01T08:23:59.352Z,90.70
2018-10-01T08:26:27.952Z,91.20
2018-10-01T08:28:57.317Z,91.00
2018-10-01T08:31:25.766Z,90.80
2018-10-01T08:33:54.293Z,92.10
2018-10-01T08:36:22.831Z,92.60
2018-10-01T08:38:51.387Z,88.00
2018-10-01T08:41:19.888Z,86.80
2018-10-01T08:43:48.386Z,79.10
2018-10-01T08:46:16.949Z,76.20
2018-10-01T08:48:52.184Z,78.60
2018-10-01T08:51:28.038Z,85.60
2018-10-01T08:55:00.393Z,90.70
2018-10-01T08:57:28.910Z,92.50
2018-10-01T08:59:57.432Z,94.50
2018-10-01T09:02:25.987Z,93.80
2018-10-01T09:04:54.558Z,90.70
2018-10-01T09:07:23.030Z,88.10
2018-10-01T09:09:51.516Z,84.50
2018-10-01T09:12:20.077Z,82.60
2018-10-01T09:14:48.646Z,79.00
2018-10-01T09:17:17.127Z,84.30
2018-10-01T09:19:46.650Z,90.20
2018-10-01T09:22:15.135Z,92.20
2018-10-01T09:24:43.772Z,96.50
2018-10-01T09:27:12.293Z,99.90
2018-10-01T09:29:40.805Z,99.90
2018-10-01T09:32:09.376Z,99.90
2018-10-01T09:34:37.863Z,99.90
2018-10-01T09:37:06.415Z,99.90
2018-10-01T09:39:34.893Z,99.90
2018-10-01T09:42:03.504Z,99.90
2018-10-01T09:44:32.032Z,99.90
2018-10-01T09:47:00.605Z,99.90
2018-10-01T09:49:29.122Z,99.20
2018-10-01T09:51:57.662Z,96.70
2018-10-01T09:54:26.145Z,93.40
2018-10-01T09:56:54.806Z,90.00
2018-10-01T09:59:23.303Z,78.80
2018-10-01T10:01:51.838Z,73.70
2018-10-01T10:04:20.423Z,77.00
2018-10-01T10:06:48.907Z,85.20
2018-10-01T10:09:17.422Z,92.50
2018-10-01T10:11:46.123Z,94.70
2018-10-01T10:14:14.650Z,99.30
2018-10-01T10:16:43.267Z,99.90
2018-10-01T10:19:11.727Z,99.90
2018-10-01T10:21:40.247Z,97.80
2018-10-01T10:24:08.778Z,92.40
2018-10-01T10:26:37.332Z,90.00
2018-10-01T10:29:05.845Z,85.10
2018-10-01T10:31:34.380Z,87.90
2018-10-01T10:34:02.944Z,92.20
2018-10-01T10:36:31.453Z,94.10
2018-10-01T10:39:00.001Z,96.50
2018-10-01T10:41:28.567Z,96.60
2018-10-01T10:43:57.111Z,93.40
2018-10-01T10:46:25.640Z,88.20
2018-10-01T10:48:54.172Z,84.50
2018-10-01T10:51:22.677Z,81.50
2018-10-01T10:53:51.225Z,84.10
2018-10-01T10:56:19.802Z,87.40
2018-10-01T10:58:48.370Z,91.30
2018-10-01T11:01:16.895Z,95.60
2018-10-01T11:03:45.460Z,99.90
2018-10-01T11:06:14.092Z,99.90
2018-10-01T11:08:42.672Z,99.90
2018-10-01T11:11:11.153Z,99.90
2018-10-01T11:13:39.699Z,99.90
2018-10-01T11:16:08.263Z,99.90
2018-10-01T11:18:36.888Z,99.90
2018-10-01T11:21:05.435Z,99.90
2018-10-01T11:23:33.798Z,99.90
2018-10-01T11:26:02.335Z,99.90
2018-10-01T11:28:30.873Z,99.90
2018-10-01T11:30:59.401Z,99.90
2018-10-01T11:33:27.970Z,99.90
2018-10-01T11:35:56.470Z,99.90
2018-10-01T11:38:24.978Z,98.60
2018-10-01T11:40:53.520Z,98.00
2018-10-01T11:43:22.148Z,96.60
2018-10-01T11:45:50.769Z,96.10
2018-10-01T11:48:19.198Z,95.80
2018-10-01T11:50:47.721Z,96.00
2018-10-01T11:53:16.284Z,98.20
2018-10-01T11:55:44.857Z,99.90
2018-10-01T11:58:13.363Z,99.90
2018-10-01T12:00:41.989Z,99.90
2018-10-01T12:03:10.520Z,99.90
2018-10-01T12:05:39.033Z,99.90
2018-10-01T12:08:07.569Z,99.90
2018-10-01T12:10:36.154Z,99.90
2018-10-01T12:13:04.607Z,99.90
2018-10-01T12:15:33.180Z,99.90
2018-10-01T12:18:01.609Z,99.90
2018-10-01T12:20:30.127Z,99.90
2018-10-01T12:22:58.973Z,99.90
2018-10-01T12:25:27.546Z,99.90
2018-10-01T12:27:56.145Z,99.90
2018-10-01T12:30:24.658Z,99.90
2018-10-01T12:32:53.227Z,99.90
2018-10-01T12:35:21.703Z,99.90
2018-10-01T12:37:50.597Z,99.90
2018-10-01T12:40:19.194Z,99.90
2018-10-01T12:42:47.711Z,99.90
2018-10-01T12:45:16.258Z,99.90
2018-10-01T12:47:44.770Z,99.90
2018-10-01T12:50:15.513Z,99.90
2018-10-01T12:52:44.017Z,99.90
2018-10-01T12:55:12.494Z,99.90
2018-10-01T12:57:41.062Z,99.90
2018-10-01T13:00:09.570Z,99.90
2018-10-01T13:02:38.138Z,99.90
2018-10-01T13:05:06.869Z,99.90
2018-10-01T13:07:35.356Z,99.90
2018-10-01T13:10:03.945Z,99.90
2018-10-01T13:12:32.496Z,99.90
2018-10-01T13:15:01.001Z,99.90
2018-10-01T13:17:29.504Z,99.90
2018-10-01T13:19:58.085Z,99.90
2018-10-01T13:22:26.622Z,99.90
2018-10-01T13:24:55.168Z,99.90
2018-10-01T13:27:23.726Z,99.90
2018-10-01T13:29:52.293Z,99.90
2018-10-01T13:32:20.903Z,99.90
2018-10-01T13:34:49.434Z,99.90
2018-10-01T13:37:18.076Z,99.90
2018-10-01T13:39:46.943Z,99.90
2018-10-01T13:42:15.522Z,99.90
2018-10-01T13:44:44.238Z,99.90
2018-10-01T13:47:12.779Z,99.90
2018-10-01T13:49:41.258Z,99.90
2018-10-01T13:52:09.987Z,99.90
2018-10-01T13:54:38.570Z,99.90
2018-10-01T13:57:07.205Z,99.90
2018-10-01T13:59:35.731Z,99.90
2018-10-01T14:02:04.356Z,99.90
2018-10-01T14:04:32.879Z,99.90
2018-10-01T14:07:01.505Z,99.90
2018-10-01T14:09:29.998Z,99.90
2018-10-01T14:11:58.520Z,99.90
2018-10-01T14:14:27.024Z,99.90
2018-10-01T14:16:55.567Z,99.90
2018-10-01T14:19:24.160Z,99.90
2018-10-01T14:21:52.836Z,99.90
2018-10-01T14:24:21.400Z,99.90
2018-10-01T14:26:49.995Z,99.90
2018-10-01T14:29:18.540Z,99.90
2018-10-01T14:31:47.089Z,99.90
2018-10-01T14:34:15.623Z,99.90
2018-10-01T14:36:44.255Z,99.90
2018-10-01T14:39:12.957Z,99.90
2018-10-01T14:41:41.526Z,99.90
2018-10-01T14:44:10.600Z,99.90
2018-10-01T14:46:39.142Z,99.90
2018-10-01T14:49:07.664Z,99.90
2018-10-01T14:51:36.218Z,99.90
2018-10-01T14:54:04.776Z,99.90
2018-10-01T14:56:33.297Z,99.90
2018-10-01T14:59:01.806Z,99.90
2018-10-01T15:01:30.317Z,99.90
2018-10-01T15:03:58.805Z,99.90
2018-10-01T15:06:27.381Z,99.90
2018-10-01T15:08:55.942Z,99.90
2018-10-01T15:11:24.456Z,99.90
2018-10-01T15:13:53.404Z,99.90
2018-10-01T15:16:22.837Z,99.90
2018-10-01T15:18:52.345Z,99.90
2018-10-01T15:21:20.852Z,99.90
2018-10-01T15:23:49.579Z,99.90
2018-10-01T15:26:18.119Z,99.90
2018-10-01T15:28:46.643Z,99.90
2018-10-01T15:31:15.207Z,99.90
2018-10-01T15:33:43.904Z,99.90
2018-10-01T15:36:12.514Z,99.90
2018-10-01T15:41:24.818Z,99.90
2018-10-01T15:43:53.386Z,99.90
2018-10-01T15:46:21.928Z,99.90
2018-10-01T15:48:50.543Z,99.90
2018-10-01T15:51:19.148Z,99.90
2018-10-01T15:53:47.673Z,99.90
2018-10-01T15:56:16.256Z,99.90
2018-10-01T15:58:44.780Z,99.90
2018-10-01T16:01:13.321Z,99.90
2018-10-01T16:03:41.844Z,99.90
2018-10-01T16:06:10.425Z,99.90
2018-10-01T16:08:39.016Z,99.90
2018-10-01T16:11:07.565Z,99.90
2018-10-01T16:13:36.108Z,99.90
2018-10-01T16:16:04.659Z,99.90
2018-10-01T16:18:33.211Z,99.90
2018-10-01T16:21:01.807Z,99.90
2018-10-01T16:23:30.353Z,99.90
2018-10-01T16:25:58.917Z,99.90
2018-10-01T16:28:27.417Z,99.90
2018-10-01T16:30:55.953Z,99.90
2018-10-01T16:33:24.783Z,99.90
2018-10-01T16:35:53.295Z,99.90
2018-10-01T16:38:21.847Z,99.90
2018-10-01T16:40:50.373Z,99.90
2018-10-01T16:43:18.895Z,99.90
2018-10-01T16:45:47.406Z,99.90
2018-10-01T16:48:15.914Z,99.90
2018-10-01T16:50:44.520Z,99.90
2018-10-01T16:53:13.046Z,99.90
2018-10-01T16:55:41.597Z,99.90
2018-10-01T16:58:10.188Z,99.90
2018-10-01T17:00:38.653Z,99.90
2018-10-01T17:03:07.210Z,99.90
2018-10-01T17:08:23.591Z,99.90
2018-10-01T17:10:52.091Z,99.90
2018-10-01T17:13:21.554Z,99.90
2018-10-01T17:15:50.096Z,99.90
2018-10-01T17:18:18.591Z,99.90
2018-10-01T17:20:47.159Z,99.90
2018-10-01T17:23:15.625Z,99.90
2018-10-01T17:25:44.134Z,99.90
2018-10-01T17:28:12.655Z,99.90
2018-10-01T17:30:41.571Z,99.90
2018-10-01T17:33:10.261Z,99.90
2018-10-01T17:35:38.800Z,99.90
2018-10-01T17:38:07.347Z,99.90
2018-10-01T17:40:35.895Z,99.90
2018-10-01T17:43:04.479Z,99.90
2018-10-01T17:45:33.134Z,99.90
2018-10-01T17:48:01.633Z,99.90
2018-10-01T17:50:30.288Z,99.90
2018-10-01T17:52:58.698Z,99.90
2018-10-01T17:55:27.218Z,99.90
2018-10-01T17:57:55.750Z,99.90
2018-10-01T18:00:24.563Z,99.90
2018-10-01T18:02:53.135Z,99.90
2018-10-01T18:05:21.697Z,99.90
2018-10-01T18:07:50.191Z,99.90
2018-10-01T18:10:18.824Z,99.90
2018-10-01T18:12:47.463Z,99.90
2018-10-01T18:15:15.966Z,99.90
2018-10-01T18:17:44.483Z,99.90
2018-10-01T18:20:13.066Z,99.90
2018-10-01T18:22:41.563Z,99.90
2018-10-01T18:25:10.511Z,99.90
2018-10-01T18:27:39.050Z,99.90
2018-10-01T18:30:07.708Z,99.90
2018-10-01T18:32:36.287Z,99.90
2018-10-01T18:35:04.930Z,99.90
2018-10-01T18:37:33.569Z,99.90
2018-10-01T18:40:02.220Z,99.90
2018-10-01T18:42:30.790Z,99.90
2018-10-01T18:44:59.310Z,99.90
2018-10-01T18:47:27.836Z,99.90
2018-10-01T18:49:56.363Z,99.90
2018-10-01T18:52:24.883Z,99.90
2018-10-01T18:54:53.430Z,99.90
2018-10-01T18:57:21.999Z,99.90
2018-10-01T18:59:50.521Z,99.90
2018-10-01T19:02:19.099Z,99.90
2018-10-01T19:04:47.721Z,99.90
2018-10-01T19:07:16.275Z,99.90
2018-10-01T19:09:44.787Z,99.90
2018-10-01T19:12:13.371Z,99.90
2018-10-01T19:14:41.945Z,99.90
2018-10-01T19:17:10.539Z,99.90
2018-10-01T19:19:39.089Z,99.90
2018-10-01T19:22:07.706Z,99.90
2018-10-01T19:24:36.232Z,99.90
2018-10-01T19:27:04.842Z,99.90
2018-10-01T19:29:33.287Z,99.90
2018-10-01T19:32:01.889Z,99.90
2018-10-01T19:34:30.412Z,99.90
2018-10-01T19:36:59.041Z,99.90
2018-10-01T19:39:27.717Z,99.90
2018-10-01T19:41:56.219Z,99.90
2018-10-01T19:44:24.864Z,99.90
2018-10-01T19:46:53.392Z,99.90
2018-10-01T19:49:22.030Z,99.90
2018-10-01T19:51:50.614Z,99.90
2018-10-01T19:54:19.155Z,99.90
2018-10-01T19:56:47.739Z,99.90
2018-10-01T19:59:16.273Z,99.90
2018-10-01T20:01:45.279Z,99.90
2018-10-01T20:04:13.859Z,99.90
2018-10-01T20:06:42.410Z,99.90
2018-10-01T20:09:12.532Z,99.90
2018-10-01T20:11:41.328Z,99.90
2018-10-01T20:14:09.909Z,99.90
2018-10-01T20:16:38.475Z,99.90
2018-10-01T20:19:07.169Z,99.90
2018-10-01T20:21:35.935Z,99.90
2018-10-01T20:24:04.455Z,99.90
2018-10-01T20:26:33.195Z,99.90
2018-10-01T20:29:02.104Z,99.90
2018-10-01T20:31:30.233Z,99.90
2018-10-01T20:33:58.760Z,99.90
2018-10-01T20:36:27.315Z,99.90
2018-10-01T20:38:55.843Z,99.90
2018-10-01T20:41:24.446Z,99.90
2018-10-01T20:43:53.157Z,99.90
2018-10-01T20:48:59.128Z,99.90
2018-10-01T20:51:27.635Z,99.90
2018-10-01T20:53:56.119Z,99.90
2018-10-01T20:56:24.720Z,99.90
2018-10-01T20:58:53.212Z,99.90
2018-10-01T21:01:21.785Z,99.90
2018-10-01T21:03:50.312Z,99.90
2018-10-01T21:06:18.858Z,99.90
2018-10-01T21:08:47.394Z,99.90
2018-10-01T21:11:15.970Z,99.90
2018-10-01T21:13:44.486Z,99.90
2018-10-01T21:16:12.990Z,99.90
2018-10-01T21:18:41.578Z,99.90
2018-10-01T21:21:10.074Z,99.90
2018-10-01T21:23:38.608Z,99.90
2018-10-01T21:26:08.566Z,99.90
2018-10-01T21:28:37.112Z,99.90
2018-10-01T21:31:05.692Z,99.90
2018-10-01T21:33:34.185Z,99.90
2018-10-01T21:36:02.734Z,99.90
2018-10-01T21:38:31.262Z,99.90
2018-10-01T21:41:00.956Z,99.90
2018-10-01T21:43:29.498Z,99.90
2018-10-01T21:45:58.045Z,99.90
2018-10-01T21:48:26.526Z,99.90
2018-10-01T21:50:55.048Z,99.90
2018-10-01T21:53:23.529Z,99.90
2018-10-01T21:55:52.079Z,99.90
2018-10-01T21:58:22.446Z,99.90
2018-10-01T22:00:56.213Z,99.90
2018-10-01T22:03:24.730Z,99.90
2018-10-01T22:05:53.302Z,99.90
2018-10-01T22:08:22.331Z,99.90
2018-10-01T22:10:50.880Z,99.90
2018-10-01T22:13:19.365Z,99.90
2018-10-01T22:15:48.337Z,99.90
2018-10-01T22:18:19.292Z,99.90
2018-10-01T22:20:47.927Z,99.90
2018-10-01T22:23:16.879Z,99.90
2018-10-01T22:25:45.407Z,99.90
2018-10-01T22:28:14.467Z,99.90
2018-10-01T22:30:43.005Z,99.90
2018-10-01T22:33:11.770Z,99.90
2018-10-01T22:35:40.283Z,99.90
2018-10-01T22:38:08.806Z,99.90
2018-10-01T22:40:37.302Z,99.90
2018-10-01T22:43:05.913Z,99.90
2018-10-01T22:45:34.467Z,99.90
2018-10-01T22:48:02.990Z,99.90
2018-10-01T22:50:31.513Z,99.90
2018-10-01T22:53:00.085Z,99.90
2018-10-01T22:55:28.642Z,99.90
2018-10-01T22:57:57.212Z,99.90
2018-10-01T23:00:26.973Z,99.90
2018-10-01T23:02:55.523Z,99.90
2018-10-01T23:05:24.104Z,99.90
2018-10-01T23:07:52.693Z,99.90
2018-10-01T23:10:21.250Z,99.90
2018-10-01T23:12:49.926Z,99.90
2018-10-01T23:15:18.467Z,99.90
2018-10-01T23:17:47.010Z,99.90
2018-10-01T23:20:15.526Z,99.90
2018-10-01T23:22:44.067Z,99.90
2018-10-01T23:25:12.698Z,99.90
2018-10-01T23:27:41.238Z,99.90
2018-10-01T23:30:09.763Z,99.90
2018-10-01T23:32:38.239Z,99.90
2018-10-01T23:35:06.787Z,99.90
2018-10-01T23:37:35.331Z,99.90
2018-10-01T23:40:03.929Z,99.90
2018-10-01T23:42:32.425Z,99.90
2018-10-01T23:45:00.994Z,99.90
2018-10-01T23:47:29.497Z,99.90
2018-10-01T23:49:58.004Z,99.90
2018-10-01T23:52:26.481Z,99.90
2018-10-01T23:54:54.990Z,99.90
2018-10-01T23:57:23.529Z,99.90
2018-10-01T23:59:52.030Z,99.90
